createdAt,value
2023-05-21T00:03:50.913Z,20.69
2023-05-21T00:08:54.497Z,20.69
2023-05-21T00:13:58.171Z,20.69
2023-05-21T00:19:03.834Z,20.69
2023-05-21T00:24:08.159Z,20.71
2023-05-21T00:29:11.743Z,20.70
2023-05-21T00:34:16.780Z,20.69
2023-05-21T00:39:20.319Z,20.67
2023-05-21T00:44:24.028Z,20.67
2023-05-21T00:49:29.307Z,20.66
2023-05-21T00:54:33.358Z,20.66
2023-05-21T00:59:36.929Z,20.65
2023-05-21T01:04:41.944Z,20.64
2023-05-21T01:09:45.561Z,20.64
2023-05-21T01:14:50.116Z,20.64
2023-05-21T01:19:55.151Z,20.63
2023-05-21T01:25:02.860Z,20.63
2023-05-21T01:30:07.892Z,20.61
2023-05-21T01:35:13.077Z,20.64
2023-05-21T01:40:21.728Z,20.63
2023-05-21T01:45:25.889Z,20.64
2023-05-21T01:50:29.624Z,20.65
2023-05-21T01:55:36.346Z,20.66
2023-05-21T02:00:40.209Z,20.64
2023-05-21T02:05:43.828Z,20.65
2023-05-21T02:10:49.022Z,20.66
2023-05-21T02:15:55.194Z,20.67
2023-05-21T02:20:58.857Z,20.66
2023-05-21T02:26:03.956Z,20.65
2023-05-21T02:31:07.599Z,20.66
2023-05-21T02:36:13.496Z,20.65
2023-05-21T02:41:18.504Z,20.65
2023-05-21T02:46:22.183Z,20.65
2023-05-21T02:51:25.811Z,20.64
2023-05-21T02:56:30.765Z,20.64
2023-05-21T03:01:34.371Z,20.65
2023-05-21T03:06:40.561Z,20.65
2023-05-21T03:11:45.785Z,20.63
2023-05-21T03:16:49.482Z,20.62
2023-05-21T03:21:53.041Z,20.61
2023-05-21T03:26:58.394Z,20.61
2023-05-21T03:32:02.588Z,20.61
2023-05-21T03:37:06.833Z,20.61
2023-05-21T03:42:13.599Z,20.60
2023-05-21T03:47:17.435Z,20.60
2023-05-21T03:52:21.021Z,20.61
2023-05-21T03:57:26.024Z,20.61
2023-05-21T04:02:29.685Z,20.61
2023-05-21T04:07:33.276Z,20.60
2023-05-21T04:12:38.241Z,20.61
2023-05-21T04:17:41.855Z,20.63
2023-05-21T04:22:45.416Z,20.61
2023-05-21T04:27:50.436Z,20.61
2023-05-21T04:32:55.059Z,20.60
2023-05-21T04:37:58.833Z,20.59
2023-05-21T04:43:04.898Z,20.57
2023-05-21T04:48:08.848Z,20.57
2023-05-21T04:53:12.460Z,20.56
2023-05-21T04:58:18.322Z,20.55
2023-05-21T05:03:22.104Z,20.57
2023-05-21T05:08:26.136Z,20.56
2023-05-21T05:13:31.233Z,20.55
2023-05-21T05:18:35.200Z,20.54
2023-05-21T05:23:38.754Z,20.55
2023-05-21T05:28:46.138Z,20.54
2023-05-21T05:33:50.023Z,20.60
2023-05-21T05:38:54.009Z,20.57
2023-05-21T05:43:58.961Z,20.58
2023-05-21T05:49:02.517Z,20.55
2023-05-21T05:54:06.289Z,20.58
2023-05-21T05:59:11.260Z,20.60
2023-05-21T06:04:14.858Z,20.61
2023-05-21T06:09:18.430Z,20.60
2023-05-21T06:14:23.408Z,20.64
2023-05-21T06:19:27.112Z,20.65
2023-05-21T06:24:31.543Z,20.67
2023-05-21T06:29:36.505Z,20.67
2023-05-21T06:34:40.100Z,20.67
2023-05-21T06:39:43.661Z,20.69
2023-05-21T06:44:48.697Z,20.74
2023-05-21T06:49:52.211Z,20.78
2023-05-21T06:54:55.837Z,20.79
2023-05-21T07:00:00.876Z,20.78
2023-05-21T07:05:04.557Z,20.88
2023-05-21T07:10:09.440Z,20.88
2023-05-21T07:15:14.470Z,20.83
2023-05-21T07:20:18.173Z,20.76
2023-05-21T07:25:21.939Z,20.77
2023-05-21T07:35:47.796Z,20.88
2023-05-21T07:40:51.340Z,20.89
2023-05-21T07:51:17.868Z,20.89
2023-05-21T07:56:21.376Z,20.91
2023-05-21T08:01:26.277Z,20.92
2023-05-21T08:06:29.927Z,20.90
2023-05-21T08:11:33.460Z,20.91
2023-05-21T08:22:00.292Z,20.93
2023-05-21T08:27:03.818Z,20.92
2023-05-21T08:32:10.196Z,20.92
2023-05-21T08:43:14.746Z,20.94
2023-05-21T08:48:19.920Z,20.94
2023-05-21T08:53:28.808Z,20.97
2023-05-21T09:04:04.944Z,20.93
2023-05-21T09:09:17.256Z,20.92
2023-05-21T09:14:21.077Z,20.97
2023-05-21T09:24:48.185Z,20.96
2023-05-21T09:29:51.726Z,20.93
2023-05-21T09:34:56.705Z,20.91
2023-05-21T09:40:00.260Z,20.92
2023-05-21T09:50:29.269Z,21.00
2023-05-21T09:55:32.838Z,21.00
2023-05-21T10:00:36.619Z,21.00
2023-05-21T10:05:42.535Z,21.03
2023-05-21T10:10:46.472Z,21.04
2023-05-21T10:15:52.444Z,21.06
2023-05-21T10:20:57.447Z,21.06
2023-05-21T10:26:01.769Z,21.07
2023-05-21T10:36:32.301Z,21.09
2023-05-21T10:41:42.155Z,21.08
2023-05-21T10:47:01.928Z,21.11
2023-05-21T10:52:13.737Z,21.15
2023-05-21T11:02:52.102Z,21.20
2023-05-21T11:07:58.857Z,21.26
2023-05-21T11:13:16.468Z,21.19
2023-05-21T11:18:19.962Z,21.16
2023-05-21T11:23:25.125Z,21.16
2023-05-21T11:28:34.704Z,21.65
2023-05-21T11:39:12.381Z,21.40
2023-05-21T11:49:38.463Z,21.32
2023-05-21T11:54:46.585Z,21.42
2023-05-21T11:59:51.556Z,21.33
2023-05-21T12:04:56.045Z,21.42
2023-05-21T12:10:02.293Z,21.44
2023-05-21T12:20:29.235Z,21.48
2023-05-21T12:25:34.473Z,21.43
2023-05-21T12:30:38.235Z,21.85
2023-05-21T12:35:42.048Z,21.58
2023-05-21T12:40:47.125Z,21.70
2023-05-21T12:45:50.726Z,21.66
2023-05-21T12:50:54.274Z,21.50
2023-05-21T12:56:09.553Z,21.52
2023-05-21T13:01:13.777Z,21.52
2023-05-21T13:06:17.402Z,21.33
2023-05-21T13:22:05.482Z,21.47
2023-05-21T13:27:10.448Z,21.81
2023-05-21T13:32:14.090Z,21.45
2023-05-21T13:37:17.743Z,21.89
2023-05-21T13:42:22.768Z,21.68
2023-05-21T13:47:26.313Z,21.59
2023-05-21T13:52:29.883Z,21.75
2023-05-21T13:57:35.206Z,22.04
2023-05-21T14:02:39.053Z,21.64
2023-05-21T14:07:43.098Z,21.98
2023-05-21T14:12:48.768Z,21.92
2023-05-21T14:17:52.678Z,21.98
2023-05-21T14:22:56.226Z,21.62
2023-05-21T14:28:01.368Z,21.93
2023-05-21T14:33:05.330Z,22.09
2023-05-21T14:38:08.897Z,21.45
2023-05-21T14:43:13.839Z,21.33
2023-05-21T14:48:18.835Z,21.35
2023-05-21T14:53:22.846Z,21.35
2023-05-21T15:03:49.275Z,21.37
2023-05-21T15:14:15.381Z,21.38
2023-05-21T15:24:40.047Z,21.40
2023-05-21T15:29:45.855Z,21.52
2023-05-21T15:34:49.854Z,21.55
2023-05-21T15:39:54.255Z,21.44
2023-05-21T15:44:59.304Z,21.42
2023-05-21T15:50:02.890Z,21.43
2023-05-21T15:55:07.169Z,21.42
2023-05-21T16:00:13.849Z,21.43
2023-05-21T16:05:17.397Z,21.41
2023-05-21T16:10:20.907Z,21.42
2023-05-21T16:15:25.784Z,21.42
2023-05-21T16:25:51.979Z,21.43
2023-05-21T16:36:18.097Z,21.64
2023-05-21T16:41:21.880Z,21.82
2023-05-21T16:51:47.669Z,21.48
2023-05-21T16:56:51.171Z,21.43
2023-05-21T17:01:56.129Z,21.41
2023-05-21T17:06:59.664Z,21.41
2023-05-21T17:12:03.286Z,21.40
2023-05-21T17:17:08.259Z,21.42
2023-05-21T17:22:11.838Z,21.43
2023-05-21T17:27:15.345Z,21.39
2023-05-21T17:32:21.093Z,21.37
2023-05-21T17:37:24.651Z,21.38
2023-05-21T17:42:28.199Z,21.39
2023-05-21T17:47:34.831Z,21.38
2023-05-21T17:52:38.485Z,21.37
2023-05-21T17:57:42.250Z,21.36
2023-05-21T18:02:47.221Z,21.38
2023-05-21T18:07:50.858Z,21.37
2023-05-21T18:12:54.456Z,21.36
2023-05-21T18:17:59.454Z,21.36
2023-05-21T18:23:02.966Z,21.37
2023-05-21T18:28:06.965Z,21.45
2023-05-21T18:43:55.122Z,21.38
2023-05-21T18:49:00.587Z,21.37
2023-05-21T18:54:04.060Z,21.43
2023-05-21T18:59:07.894Z,21.46
2023-05-21T19:04:12.916Z,21.42
2023-05-21T19:09:16.504Z,21.33
2023-05-21T19:14:21.168Z,21.32
2023-05-21T19:19:26.221Z,21.30
2023-05-21T19:24:30.030Z,21.30
2023-05-21T19:29:33.546Z,21.29
2023-05-21T19:34:38.786Z,21.30
2023-05-21T19:39:43.319Z,21.29
2023-05-21T19:44:46.924Z,21.30
2023-05-21T19:49:51.991Z,21.31
2023-05-21T19:54:55.540Z,21.31
2023-05-21T19:59:59.345Z,21.31
2023-05-21T20:05:04.425Z,21.30
2023-05-21T20:10:09.408Z,21.32
2023-05-21T20:15:14.883Z,21.32
2023-05-21T20:20:23.191Z,21.32
2023-05-21T20:25:26.807Z,21.32
2023-05-21T20:30:33.200Z,21.31
2023-05-21T20:35:38.231Z,21.31
2023-05-21T20:40:41.746Z,21.30
2023-05-21T20:45:47.979Z,21.30
2023-05-21T20:50:54.497Z,21.31
2023-05-21T20:55:58.066Z,21.30
2023-05-21T21:01:02.068Z,21.30
2023-05-21T21:06:07.304Z,21.30
2023-05-21T21:11:12.025Z,21.29
2023-05-21T21:16:15.799Z,21.31
2023-05-21T21:21:21.313Z,21.31
2023-05-21T21:26:25.192Z,21.30
2023-05-21T21:31:28.927Z,21.30
2023-05-21T21:36:33.923Z,21.30
2023-05-21T21:41:37.514Z,21.30
2023-05-21T21:46:41.096Z,21.30
2023-05-21T21:51:46.378Z,21.29
2023-05-21T21:56:49.953Z,21.27
2023-05-21T22:01:53.561Z,21.28
2023-05-21T22:06:58.887Z,21.29
2023-05-21T22:12:07.812Z,21.30
2023-05-21T22:17:11.478Z,21.26
2023-05-21T22:22:16.588Z,21.27
2023-05-21T22:27:20.231Z,21.26
2023-05-21T22:32:23.886Z,21.25
2023-05-21T22:37:28.883Z,21.26
2023-05-21T22:42:32.688Z,21.27
2023-05-21T22:47:39.849Z,21.26
2023-05-21T22:52:44.841Z,21.27
2023-05-21T22:57:48.411Z,21.25
2023-05-21T23:02:54.176Z,21.23
2023-05-21T23:07:59.832Z,21.25
2023-05-21T23:13:03.370Z,21.24
2023-05-21T23:18:07.950Z,21.24
2023-05-21T23:23:12.950Z,21.24
2023-05-21T23:28:16.510Z,21.24
2023-05-21T23:33:20.024Z,21.25
2023-05-21T23:38:25.373Z,21.21
2023-05-21T23:43:28.961Z,21.25
2023-05-21T23:48:33.348Z,21.27
2023-05-21T23:53:38.551Z,21.25
2023-05-21T23:58:42.074Z,21.27
